Time;durP1;ratioP1;P1;durP2;ratioP2;P2;SDS_P1;SDS_P2;PMS_P1;PMS_P2;Temp;Humidity;BMP_temperature;BMP_pressure;BME280_temperature;BME280_humidity;BME280_pressure;Samples;Min_cycle;Max_cycle;Signal;HPM_P1;HPM_P2
2023/07/10 00:00:52;;;;;;;;;;;;;;;17.33;55.94;100986.72;5076661;28;1185;-53
2023/07/10 00:03:18;;;;;;;;;;;;;;;16.53;57.52;100992.56;5075714;28;1384;-55
2023/07/10 00:05:43;;;;;;;;;;;;;;;16.19;57.53;100987.44;5075831;28;1055;-54
2023/07/10 00:08:09;;;;;;;;;;;;;;;16.12;57.16;100989.56;5076066;28;1568;-57
2023/07/10 00:10:34;;;;;;;;;;;;;;;15.97;56.86;100988.41;5076033;28;1094;-55
2023/07/10 00:13:00;;;;;;;;;;;;;;;15.92;56.68;100985.63;5057735;28;1141;-54
2023/07/10 00:15:25;;;;;;;;;;;;;;;15.85;56.69;100991.34;5076231;28;1122;-56
2023/07/10 00:17:51;;;;;;;;;;;;;;;15.80;56.23;100985.00;5057340;28;1905;-54
2023/07/10 00:20:20;;;;;;;;;;;;;;;15.77;56.19;100988.22;5075485;28;1074;-55
2023/07/10 00:22:46;;;;;;;;;;;;;;;15.75;56.16;100983.00;5075555;28;954;-54
2023/07/10 00:25:11;;;;;;;;;;;;;;;15.66;56.07;100988.16;5076052;28;1166;-55
2023/07/10 00:27:37;;;;;;;;;;;;;;;15.67;55.76;100978.00;5075809;28;1238;-54
2023/07/10 00:30:03;;;;;;;;;;;;;;;15.60;55.86;100982.88;5076128;28;1055;-53
2023/07/10 00:32:29;;;;;;;;;;;;;;;15.57;56.00;100979.59;5075178;28;1138;-52
2023/07/10 00:34:54;;;;;;;;;;;;;;;15.55;55.79;100989.16;5076132;28;1059;-55
2023/07/10 00:37:21;;;;;;;;;;;;;;;15.53;55.98;100985.88;5058011;28;1976;-55
2023/07/10 00:39:47;;;;;;;;;;;;;;;15.48;55.81;100983.06;5075942;28;1004;-56
2023/07/10 00:42:17;;;;;;;;;;;;;;;15.49;55.73;100982.00;5057721;28;1078;-55
2023/07/10 00:44:49;;;;;;;;;;;;;;;15.81;56.26;100976.50;5044529;28;1161;-55
2023/07/10 00:47:17;;;;;;;;;;;;;;;17.15;56.28;100981.78;5056412;28;1112;-55
2023/07/10 00:49:50;;;;;;;;;;;;;;;16.65;57.36;100982.16;5075068;28;1067;-55
2023/07/10 00:52:17;;;;;;;;;;;;;;;16.24;57.35;100976.47;5057776;28;1028;-56
2023/07/10 00:54:44;;;;;;;;;;;;;;;16.11;57.16;100980.53;5057530;28;1098;-54
2023/07/10 00:57:12;;;;;;;;;;;;;;;16.01;57.11;100984.03;5067888;28;1911;-53
2023/07/10 00:59:38;;;;;;;;;;;;;;;15.95;56.62;100979.63;5057981;28;1425;-56
2023/07/10 01:02:07;;;;;;;;;;;;;;;15.84;56.79;100988.88;5057377;28;1111;-55
2023/07/10 01:04:33;;;;;;;;;;;;;;;15.82;56.30;100980.06;5057464;28;1162;-55
2023/07/10 01:06:58;;;;;;;;;;;;;;;15.77;56.29;100982.72;5075614;28;1207;-51
2023/07/10 01:09:24;;;;;;;;;;;;;;;15.73;56.24;100986.00;5075240;28;1035;-53
2023/07/10 01:11:49;;;;;;;;;;;;;;;15.66;56.03;100981.84;5040757;28;1208;-55
2023/07/10 01:14:15;;;;;;;;;;;;;;;15.67;55.88;100976.09;5040862;28;1052;-55
2023/07/10 01:16:40;;;;;;;;;;;;;;;15.64;55.93;100976.63;5057731;28;1986;-55
2023/07/10 01:19:06;;;;;;;;;;;;;;;15.53;56.14;100977.66;5057198;28;1161;-55
2023/07/10 01:21:33;;;;;;;;;;;;;;;15.58;55.84;100977.66;5057792;28;1332;-54
2023/07/10 01:23:59;;;;;;;;;;;;;;;15.51;55.92;100988.03;5075320;28;1063;-55
2023/07/10 01:26:24;;;;;;;;;;;;;;;15.49;55.90;100982.00;5074794;28;1019;-53
2023/07/10 01:28:51;;;;;;;;;;;;;;;15.45;55.69;100980.84;5041585;28;1356;-54
2023/07/10 01:31:17;;;;;;;;;;;;;;;15.46;55.88;100987.97;5061113;28;1221;-55
2023/07/10 01:34:03;;;;;;;;;;;;;;;15.45;55.61;100991.81;5060845;28;950;-53
2023/07/10 01:36:29;;;;;;;;;;;;;;;15.54;56.09;100995.72;5067592;28;1981;-54
2023/07/10 01:39:04;;;;;;;;;;;;;;;16.93;56.11;101002.88;5061181;28;1110;-53
2023/07/10 01:41:30;;;;;;;;;;;;;;;16.69;57.06;100993.41;5078842;28;1132;-54
2023/07/10 01:43:55;;;;;;;;;;;;;;;16.25;57.52;100995.41;5078508;28;1095;-56
2023/07/10 01:46:24;;;;;;;;;;;;;;;16.07;57.28;100999.47;5078557;28;1094;-55
2023/07/10 01:48:52;;;;;;;;;;;;;;;15.94;57.12;100991.69;5056239;28;1221;-51
2023/07/10 01:51:19;;;;;;;;;;;;;;;15.88;56.73;100990.81;5052613;28;1168;-54
2023/07/10 01:53:45;;;;;;;;;;;;;;;15.85;56.47;100996.84;5060541;28;1447;-53
2023/07/10 01:56:10;;;;;;;;;;;;;;;15.79;56.44;100997.03;5059645;28;1909;-56
2023/07/10 01:58:36;;;;;;;;;;;;;;;15.71;56.23;100993.69;5060536;28;1098;-56
2023/07/10 02:01:01;;;;;;;;;;;;;;;15.65;56.18;100999.38;5060666;28;1113;-57
2023/07/10 02:03:27;;;;;;;;;;;;;;;15.66;56.07;100999.13;5078258;28;1135;-53
2023/07/10 02:05:52;;;;;;;;;;;;;;;15.61;55.84;100996.31;5078152;28;1141;-54
2023/07/10 02:08:18;;;;;;;;;;;;;;;15.55;55.96;101000.13;5078501;28;1245;-52
2023/07/10 02:10:43;;;;;;;;;;;;;;;15.55;55.74;101002.84;5078097;28;1058;-56
2023/07/10 02:13:09;;;;;;;;;;;;;;;15.52;56.00;100995.97;5060339;28;1134;-52
2023/07/10 02:15:35;;;;;;;;;;;;;;;15.51;55.84;101001.72;5060217;28;1103;-53
2023/07/10 02:18:00;;;;;;;;;;;;;;;15.42;55.89;101000.53;5059728;28;1978;-57
2023/07/10 02:20:26;;;;;;;;;;;;;;;15.48;55.82;101011.28;5077680;28;1031;-57
2023/07/10 02:22:51;;;;;;;;;;;;;;;16.52;56.38;101010.09;5078147;28;1051;-53
2023/07/10 02:25:17;;;;;;;;;;;;;;;16.91;56.81;101012.47;5060016;28;1214;-54
2023/07/10 02:27:42;;;;;;;;;;;;;;;16.30;57.71;101008.38;5077676;28;1079;-55
2023/07/10 02:30:08;;;;;;;;;;;;;;;16.12;57.21;101000.56;5078364;28;1130;-56
2023/07/10 02:32:34;;;;;;;;;;;;;;;15.97;57.18;100999.38;5059527;28;1099;-55
2023/07/10 02:34:59;;;;;;;;;;;;;;;15.83;57.17;101009.16;5078093;28;1062;-56
2023/07/10 02:37:25;;;;;;;;;;;;;;;15.83;56.74;101009.16;5059419;28;1976;-56
2023/07/10 02:39:50;;;;;;;;;;;;;;;15.81;56.19;101005.81;5077701;28;1102;-56
2023/07/10 02:42:16;;;;;;;;;;;;;;;15.71;56.32;101015.63;5077049;28;1102;-55
2023/07/10 02:44:41;;;;;;;;;;;;;;;15.74;55.89;101012.34;5059637;28;1245;-56
2023/07/10 02:47:07;;;;;;;;;;;;;;;15.64;55.99;101014.16;5077126;28;1066;-52
2023/07/10 02:49:32;;;;;;;;;;;;;;;15.62;55.77;101016.34;5059647;28;1126;-56
2023/07/10 02:51:57;;;;;;;;;;;;;;;15.53;55.84;101016.00;5077398;28;1226;-56
2023/07/10 02:54:23;;;;;;;;;;;;;;;15.52;55.95;101019.84;5059498;28;1103;-56
2023/07/10 02:56:48;;;;;;;;;;;;;;;15.47;55.80;101017.03;5076846;28;1901;-57
2023/07/10 02:59:14;;;;;;;;;;;;;;;15.45;55.76;101020.03;5059867;28;1126;-56
2023/07/10 03:01:39;;;;;;;;;;;;;;;15.44;55.65;101014.81;5058968;28;1212;-56
2023/07/10 03:04:05;;;;;;;;;;;;;;;15.60;55.94;101019.38;5059059;28;1046;-57
2023/07/10 03:06:31;;;;;;;;;;;;;;;17.01;55.88;101029.00;5059252;28;1517;-57
2023/07/10 03:08:58;;;;;;;;;;;;;;;16.69;56.79;101016.25;5076891;28;1206;-57
2023/07/10 03:11:23;;;;;;;;;;;;;;;16.25;57.42;101016.56;5077274;28;1229;-56
2023/07/10 03:13:49;;;;;;;;;;;;;;;16.01;57.19;101019.69;5077176;28;1019;-58
2023/07/10 03:16:14;;;;;;;;;;;;;;;15.97;56.94;101018.56;5058649;28;1898;-50
2023/07/10 03:18:40;;;;;;;;;;;;;;;15.91;56.82;101022.38;5076383;28;1138;-54
2023/07/10 03:21:06;;;;;;;;;;;;;;;15.81;56.48;101017.63;5076556;28;1150;-53
2023/07/10 03:23:31;;;;;;;;;;;;;;;15.78;56.39;101020.88;5076999;28;1078;-54
2023/07/10 03:25:57;;;;;;;;;;;;;;;15.73;56.18;101015.34;5044549;28;1309;-53
2023/07/10 03:28:23;;;;;;;;;;;;;;;15.70;56.22;101021.34;5064172;28;1072;-50
2023/07/10 03:30:48;;;;;;;;;;;;;;;15.63;56.01;101021.56;5076610;28;1070;-53
2023/07/10 03:33:14;;;;;;;;;;;;;;;15.62;55.91;101027.31;5076140;28;1115;-52
2023/07/10 03:35:40;;;;;;;;;;;;;;;15.57;55.91;101019.84;5076488;28;1110;-50
2023/07/10 03:38:06;;;;;;;;;;;;;;;15.54;55.98;101028.59;5076235;28;1973;-54
2023/07/10 03:40:31;;;;;;;;;;;;;;;15.52;55.78;101025.31;5075869;28;1410;-52
2023/07/10 03:42:57;;;;;;;;;;;;;;;15.48;55.81;101035.97;5076536;28;1162;-57
2023/07/10 03:45:22;;;;;;;;;;;;;;;15.48;55.97;101035.97;5073896;28;1035;-54
2023/07/10 03:47:48;;;;;;;;;;;;;;;15.46;55.68;101040.03;5076495;28;1154;-56
2023/07/10 03:50:13;;;;;;;;;;;;;;;15.48;56.06;101046.09;5076154;28;1134;-55
2023/07/10 03:52:39;;;;;;;;;;;;;;;16.87;56.19;101044.31;5075118;28;1334;-52
2023/07/10 03:55:04;;;;;;;;;;;;;;;16.84;56.67;101039.34;5073346;28;1402;-53
2023/07/10 03:57:30;;;;;;;;;;;;;;;16.28;57.56;101042.66;5074130;28;1977;-51
2023/07/10 03:59:55;;;;;;;;;;;;;;;16.13;57.42;101044.22;5072952;28;1170;-52
2023/07/10 04:02:21;;;;;;;;;;;;;;;16.03;57.16;101052.34;5071866;28;1312;-51
2023/07/10 04:04:46;;;;;;;;;;;;;;;15.91;56.82;101042.38;5056284;28;1036;-50
2023/07/10 04:07:12;;;;;;;;;;;;;;;15.88;56.57;101055.81;5069923;28;1449;-55
2023/07/10 04:09:37;;;;;;;;;;;;;;;15.80;56.85;101059.03;5072268;28;877;-55
2023/07/10 04:12:03;;;;;;;;;;;;;;;15.71;56.56;101056.75;5075534;28;1050;-55
2023/07/10 04:14:28;;;;;;;;;;;;;;;15.76;56.53;101063.34;5076415;28;1175;-53
2023/07/10 04:16:54;;;;;;;;;;;;;;;15.77;55.92;101063.09;5076100;28;1980;-54
2023/07/10 04:19:20;;;;;;;;;;;;;;;15.73;56.02;101060.03;5065480;28;1122;-55
2023/07/10 04:21:45;;;;;;;;;;;;;;;15.60;56.38;101057.75;5071660;28;1221;-53
2023/07/10 04:24:11;;;;;;;;;;;;;;;15.65;56.18;101052.28;5076180;28;966;-53
2023/07/10 04:26:37;;;;;;;;;;;;;;;15.58;56.10;101048.94;5075915;28;1085;-55
2023/07/10 04:29:03;;;;;;;;;;;;;;;15.56;56.16;101053.84;5075609;28;1106;-53
2023/07/10 04:31:29;;;;;;;;;;;;;;;15.54;56.15;101050.53;5075819;28;1067;-51
2023/07/10 04:33:55;;;;;;;;;;;;;;;15.57;56.09;101050.00;5075540;28;1051;-52
2023/07/10 04:36:20;;;;;;;;;;;;;;;16.49;56.56;101054.56;5075726;28;2037;-53
2023/07/10 04:38:46;;;;;;;;;;;;;;;17.08;56.08;101059.81;5075474;28;1095;-52
2023/07/10 04:41:12;;;;;;;;;;;;;;;16.45;57.54;101058.94;5075202;28;1217;-52
2023/07/10 04:43:38;;;;;;;;;;;;;;;16.15;57.59;101054.91;5075641;28;1088;-52
2023/07/10 04:46:04;;;;;;;;;;;;;;;16.08;57.45;101068.84;5075221;28;1121;-47
2023/07/10 04:48:30;;;;;;;;;;;;;;;15.98;57.27;101055.88;5075236;28;1169;-49
2023/07/10 04:50:57;;;;;;;;;;;;;;;15.99;56.79;101051.22;5075774;28;1143;-51
2023/07/10 04:53:22;;;;;;;;;;;;;;;16.96;56.10;101048.22;5075381;28;1070;-53
2023/07/10 04:55:48;;;;;;;;;;;;;;;16.25;55.79;101050.31;5075321;28;1225;-51
2023/07/10 04:58:14;;;;;;;;;;;;;;;15.97;54.09;101054.22;5071327;28;1970;-53
2023/07/10 05:00:39;;;;;;;;;;;;;;;16.00;52.58;101045.47;5060162;28;1316;-54
2023/07/10 05:03:05;;;;;;;;;;;;;;;15.96;51.44;101041.59;5057593;28;1277;-54
2023/07/10 05:05:30;;;;;;;;;;;;;;;15.94;50.99;101038.31;5071203;28;1384;-51
2023/07/10 05:07:56;;;;;;;;;;;;;;;16.86;53.95;101038.00;5079939;28;1170;-51
2023/07/10 05:10:21;;;;;;;;;;;;;;;16.56;53.55;101042.28;5078968;28;1165;-51
2023/07/10 05:12:47;;;;;;;;;;;;;;;16.29;52.33;101036.06;5061695;28;1242;-49
2023/07/10 05:15:12;;;;;;;;;;;;;;;16.31;50.90;101033.88;5079564;28;1182;-53
2023/07/10 05:17:38;;;;;;;;;;;;;;;16.29;50.40;101034.16;5079563;28;1898;-49
2023/07/10 05:20:04;;;;;;;;;;;;;;;17.02;52.03;101038.88;5078919;28;1134;-50
2023/07/10 05:22:29;;;;;;;;;;;;;;;16.53;51.59;101045.53;5078802;28;1082;-50
2023/07/10 05:24:55;;;;;;;;;;;;;;;16.39;50.76;101039.69;5079636;28;1070;-52
2023/07/10 05:27:20;;;;;;;;;;;;;;;16.31;50.32;101047.59;5079101;28;1108;-51
2023/07/10 05:29:46;;;;;;;;;;;;;;;16.29;49.71;101045.13;5079031;28;1011;-51
2023/07/10 05:32:11;;;;;;;;;;;;;;;16.22;48.98;101047.28;5072808;28;1028;-49
2023/07/10 05:34:36;;;;;;;;;;;;;;;17.13;50.68;101053.50;5074172;28;1297;-52
2023/07/10 05:37:02;;;;;;;;;;;;;;;16.75;51.12;101056.34;5067051;28;1909;-51
2023/07/10 05:39:28;;;;;;;;;;;;;;;16.54;50.54;101060.09;5067058;28;1284;-50
2023/07/10 05:41:53;;;;;;;;;;;;;;;16.56;49.76;101061.47;5064289;28;1256;-49
2023/07/10 05:44:19;;;;;;;;;;;;;;;16.49;49.06;101055.38;5063725;28;1366;-52
2023/07/10 05:46:44;;;;;;;;;;;;;;;16.38;48.92;101054.53;5071242;28;1322;-49
2023/07/10 05:49:10;;;;;;;;;;;;;;;16.32;48.68;101055.56;5078353;28;1194;-50
2023/07/10 05:51:35;;;;;;;;;;;;;;;16.83;49.09;101056.91;5078446;28;1214;-50
2023/07/10 05:54:01;;;;;;;;;;;;;;;16.91;50.43;101056.44;5078282;28;1067;-47
2023/07/10 05:56:27;;;;;;;;;;;;;;;16.75;49.66;101061.84;5078195;28;1975;-48
2023/07/10 05:58:52;;;;;;;;;;;;;;;16.54;49.50;101054.59;5077793;28;1189;-51
2023/07/10 06:01:18;;;;;;;;;;;;;;;16.65;48.54;101052.72;5077927;28;1137;-50
2023/07/10 06:03:43;;;;;;;;;;;;;;;16.53;48.43;101053.75;5078467;28;1130;-47
2023/07/10 06:06:09;;;;;;;;;;;;;;;16.49;48.10;101054.56;5078773;28;1067;-49
2023/07/10 06:08:35;;;;;;;;;;;;;;;16.43;47.91;101050.97;5077952;28;1218;-51
2023/07/10 06:11:00;;;;;;;;;;;;;;;16.47;47.61;101051.28;5069241;28;1308;-48
2023/07/10 06:13:26;;;;;;;;;;;;;;;16.43;47.65;101060.00;5056860;28;1427;-56
2023/07/10 06:15:52;;;;;;;;;;;;;;;16.44;47.70;101052.63;5075532;28;1481;-55
2023/07/10 06:18:17;;;;;;;;;;;;;;;16.46;47.57;101049.63;5074017;28;1914;-52
2023/07/10 06:20:43;;;;;;;;;;;;;;;16.44;47.67;101041.66;5064213;28;992;-53
2023/07/10 06:23:08;;;;;;;;;;;;;;;16.96;49.11;101044.63;5071792;28;1127;-54
2023/07/10 06:25:34;;;;;;;;;;;;;;;16.71;49.09;101052.47;5073201;28;1106;-56
2023/07/10 06:27:59;;;;;;;;;;;;;;;16.71;48.67;101046.97;5071066;28;1015;-57
2023/07/10 06:30:25;;;;;;;;;;;;;;;17.30;49.51;101039.50;5077521;28;1090;-56
2023/07/10 06:32:50;;;;;;;;;;;;;;;16.91;49.64;101034.47;5077335;28;1422;-56
2023/07/10 06:35:16;;;;;;;;;;;;;;;16.82;48.87;101036.06;5074112;28;1201;-57
2023/07/10 06:37:43;;;;;;;;;;;;;;;16.76;48.63;101038.78;5077768;28;1981;-52
2023/07/10 06:40:13;;;;;;;;;;;;;;;16.70;48.32;101034.34;5077705;28;1093;-54
2023/07/10 06:42:39;;;;;;;;;;;;;;;16.71;48.06;101041.50;5071404;28;1131;-51
2023/07/10 06:45:06;;;;;;;;;;;;;;;16.74;47.88;101032.72;5048481;28;1321;-54
2023/07/10 06:47:32;;;;;;;;;;;;;;;16.59;47.75;101038.97;5051681;28;1277;-52
2023/07/10 06:49:58;;;;;;;;;;;;;;;16.62;47.85;101032.13;5067995;28;1261;-52
2023/07/10 06:52:23;;;;;;;;;;;;;;;16.66;47.69;101026.91;5056711;28;1297;-52
2023/07/10 06:54:49;;;;;;;;;;;;;;;16.62;47.40;101028.53;5062573;28;1425;-53
2023/07/10 06:57:15;;;;;;;;;;;;;;;16.66;47.36;101027.75;5060864;28;1917;-54
2023/07/10 06:59:40;;;;;;;;;;;;;;;16.58;47.31;101025.53;5058953;28;1328;-56
2023/07/10 07:02:06;;;;;;;;;;;;;;;16.56;47.36;101033.19;5060694;28;1429;-53
2023/07/10 07:04:31;;;;;;;;;;;;;;;16.55;47.61;101020.53;5062013;28;1316;-55
2023/07/10 07:06:57;;;;;;;;;;;;;;;16.53;47.44;101020.00;5059453;28;1411;-52
2023/07/10 07:09:23;;;;;;;;;;;;;;;16.62;47.19;101025.81;5064292;28;1398;-54
2023/07/10 07:11:48;;;;;;;;;;;;;;;16.60;47.29;101015.91;5059343;28;1328;-53
2023/07/10 07:14:13;;;;;;;;;;;;;;;16.63;47.36;101014.53;5047550;28;1305;-56
2023/07/10 07:16:39;;;;;;;;;;;;;;;17.22;48.01;101007.06;5064975;28;1968;-53
2023/07/10 07:19:04;;;;;;;;;;;;;;;17.05;49.27;101010.88;5062051;28;1324;-54
2023/07/10 07:21:30;;;;;;;;;;;;;;;16.92;48.74;101014.97;5041970;28;1388;-54
2023/07/10 07:23:55;;;;;;;;;;;;;;;16.84;48.68;101012.69;5056124;28;1332;-53
2023/07/10 07:26:23;;;;;;;;;;;;;;;16.80;48.39;101017.06;5059010;28;1340;-52
2023/07/10 07:28:49;;;;;;;;;;;;;;;16.77;48.13;101010.22;5063707;28;1167;-55
2023/07/10 07:31:14;;;;;;;;;;;;;;;16.77;47.78;101012.13;5076627;28;1055;-53
2023/07/10 07:33:40;;;;;;;;;;;;;;;16.76;47.86;101010.50;5058512;28;1114;-54
2023/07/10 07:36:05;;;;;;;;;;;;;;;16.78;47.73;101000.06;5069552;28;1320;-54
2023/07/10 07:38:31;;;;;;;;;;;;;;;16.75;47.61;100997.84;5061409;28;1901;-51
2023/07/10 07:40:58;;;;;;;;;;;;;;;16.81;47.61;100995.94;5064912;28;985;-53
2023/07/10 07:43:23;;;;;;;;;;;;;;;16.71;47.55;100986.56;5076645;28;1146;-52
2023/07/10 07:45:49;;;;;;;;;;;;;;;16.77;47.50;100982.75;5059244;28;1063;-50
2023/07/10 07:48:15;;;;;;;;;;;;;;;16.75;47.27;100992.38;5061408;28;1154;-53
2023/07/10 07:50:40;;;;;;;;;;;;;;;16.74;47.27;100985.22;5056563;28;1374;-54
2023/07/10 07:53:06;;;;;;;;;;;;;;;16.74;47.18;100979.72;5066095;28;1328;-53
2023/07/10 07:55:31;;;;;;;;;;;;;;;16.69;47.51;100983.28;5067601;28;1269;-52
2023/07/10 07:57:57;;;;;;;;;;;;;;;16.81;47.24;100987.72;5065111;28;1967;-51
2023/07/10 08:00:23;;;;;;;;;;;;;;;16.71;47.44;100981.09;5061923;28;1047;-54
2023/07/10 08:02:49;;;;;;;;;;;;;;;16.79;47.27;100976.16;5066292;28;1268;-54
2023/07/10 08:05:14;;;;;;;;;;;;;;;16.67;47.63;100974.47;5071775;28;1364;-55
2023/07/10 08:07:40;;;;;;;;;;;;;;;16.72;47.22;100971.75;5059152;28;1382;-53
2023/07/10 08:10:06;;;;;;;;;;;;;;;16.70;47.30;100967.63;5062058;28;1403;-53
2023/07/10 08:12:31;;;;;;;;;;;;;;;16.77;46.94;100968.19;5067717;28;1299;-52
2023/07/10 08:14:57;;;;;;;;;;;;;;;16.71;47.15;100959.13;5066985;28;1390;-54
2023/07/10 08:17:22;;;;;;;;;;;;;;;16.74;47.12;100953.06;5076267;28;1978;-53
2023/07/10 08:19:48;;;;;;;;;;;;;;;16.71;47.01;100970.09;5058084;28;1015;-55
2023/07/10 08:22:13;;;;;;;;;;;;;;;16.72;47.19;100962.72;5076120;28;1166;-54
2023/07/10 08:24:40;;;;;;;;;;;;;;;16.77;46.97;100958.06;5068254;28;1170;-54
2023/07/10 08:27:06;;;;;;;;;;;;;;;16.73;47.20;100954.19;5072350;28;1141;-53
2023/07/10 08:29:32;;;;;;;;;;;;;;;16.70;47.38;100940.97;5055609;28;1288;-53
2023/07/10 08:31:58;;;;;;;;;;;;;;;16.75;47.05;100953.91;5070253;28;1096;-52
2023/07/10 08:34:24;;;;;;;;;;;;;;;16.75;46.96;100954.72;5075766;28;1217;-53
2023/07/10 08:36:52;;;;;;;;;;;;;;;16.73;47.06;100956.94;5074892;28;1909;-54
2023/07/10 08:39:18;;;;;;;;;;;;;;;16.83;46.96;100949.81;5077648;28;1566;-52
2023/07/10 08:41:44;;;;;;;;;;;;;;;16.80;47.10;100951.16;5079986;28;1070;-52
2023/07/10 08:44:10;;;;;;;;;;;;;;;16.80;47.03;100945.69;5080494;28;1070;-53
2023/07/10 08:46:36;;;;;;;;;;;;;;;16.74;47.13;100947.59;5062328;28;1174;-53
2023/07/10 08:49:01;;;;;;;;;;;;;;;16.80;46.93;100958.59;5069656;28;1138;-52
2023/07/10 08:51:30;;;;;;;;;;;;;;;16.70;47.19;100956.66;5080185;28;1160;-54
2023/07/10 08:53:58;;;;;;;;;;;;;;;16.74;47.09;100960.50;5071062;28;1141;-52
2023/07/10 08:56:29;;;;;;;;;;;;;;;16.72;47.09;100944.28;5063391;28;1967;-53
2023/07/10 08:59:09;;;;;;;;;;;;;;;16.72;47.00;100955.28;5064761;28;1313;-53
2023/07/10 09:01:36;;;;;;;;;;;;;;;16.77;46.86;100941.56;5045341;28;1279;-54
2023/07/10 09:04:02;;;;;;;;;;;;;;;16.69;47.27;100941.25;5048085;28;1304;-52
2023/07/10 09:06:38;;;;;;;;;;;;;;;16.76;47.11;100939.91;5058019;28;1400;-54
2023/07/10 09:09:04;;;;;;;;;;;;;;;16.74;46.93;100941.28;5061069;28;1022;-53
2023/07/10 09:11:30;;;;;;;;;;;;;;;16.68;47.31;100943.19;5046933;28;1415;-53
2023/07/10 09:13:57;;;;;;;;;;;;;;;16.82;46.66;100942.69;5054313;28;1372;-52
2023/07/10 09:16:23;;;;;;;;;;;;;;;16.76;46.91;100939.09;5061473;28;1909;-53
2023/07/10 09:18:52;;;;;;;;;;;;;;;16.77;46.90;100938.81;5079500;28;1237;-52
2023/07/10 09:21:20;;;;;;;;;;;;;;;16.82;46.91;100934.44;5067157;28;1309;-50
2023/07/10 09:23:46;;;;;;;;;;;;;;;16.75;47.03;100931.94;5061941;28;1134;-54
2023/07/10 09:26:13;;;;;;;;;;;;;;;16.69;47.12;100935.75;5049505;28;1399;-55
2023/07/10 09:28:39;;;;;;;;;;;;;;;16.81;46.79;100933.59;5064645;28;1336;-54
2023/07/10 09:31:07;;;;;;;;;;;;;;;16.82;46.82;100927.03;5070767;28;1332;-53
2023/07/10 09:33:43;;;;;;;;;;;;;;;16.81;46.93;100930.84;5079162;28;1445;-54
2023/07/10 09:36:15;;;;;;;;;;;;;;;16.87;46.87;100928.94;5075046;28;1103;-57
2023/07/10 09:38:42;;;;;;;;;;;;;;;16.81;46.90;100930.03;5066084;28;1922;-55
2023/07/10 09:41:11;;;;;;;;;;;;;;;16.85;47.03;100931.16;5063011;28;1301;-56
2023/07/10 09:43:37;;;;;;;;;;;;;;;16.73;47.09;100924.00;5078809;28;1320;-55
2023/07/10 09:46:03;;;;;;;;;;;;;;;16.81;46.89;100930.84;5071435;28;1027;-55
2023/07/10 09:48:34;;;;;;;;;;;;;;;16.76;47.17;100917.94;5050070;28;1627;-55
2023/07/10 09:51:01;;;;;;;;;;;;;;;16.80;47.18;100925.63;5078748;28;1209;-56
2023/07/10 09:53:33;;;;;;;;;;;;;;;16.85;46.95;100920.97;5078722;28;1095;-53
2023/07/10 09:55:59;;;;;;;;;;;;;;;16.75;47.27;100913.53;5078720;28;1138;-56
2023/07/10 09:58:24;;;;;;;;;;;;;;;16.75;47.21;100915.47;5078398;28;1898;-54
2023/07/10 10:00:50;;;;;;;;;;;;;;;16.86;47.23;100911.66;5069017;28;1141;-55
2023/07/10 10:03:17;;;;;;;;;;;;;;;16.91;46.99;100910.84;5074539;28;1150;-56
2023/07/10 10:05:42;;;;;;;;;;;;;;;16.93;47.00;100914.97;5078104;28;1066;-56
2023/07/10 10:08:28;;;;;;;;;;;;;;;16.97;46.71;100909.78;5078563;28;1198;-51
2023/07/10 10:11:07;;;;;;;;;;;;;;;16.91;46.88;100897.13;5078482;28;1109;-53
2023/07/10 10:13:34;;;;;;;;;;;;;;;16.93;47.02;100912.25;5065638;28;982;-55
2023/07/10 10:16:06;;;;;;;;;;;;;;;16.87;47.05;100912.47;5053765;28;1150;-54
2023/07/10 10:18:47;;;;;;;;;;;;;;;16.91;47.16;100908.09;5061325;28;1901;-52
2023/07/10 10:21:13;;;;;;;;;;;;;;;16.88;47.06;100893.00;5078304;28;1145;-52
2023/07/10 10:23:39;;;;;;;;;;;;;;;16.95;46.81;100892.72;5077793;28;1110;-54
2023/07/10 10:26:25;;;;;;;;;;;;;;;16.89;46.96;100894.66;5048408;28;1231;-55
2023/07/10 10:29:09;;;;;;;;;;;;;;;16.95;46.88;100881.75;5025948;28;1152;-54
2023/07/10 10:31:39;;;;;;;;;;;;;;;16.92;46.78;100888.59;5073624;28;995;-53
2023/07/10 10:34:28;;;;;;;;;;;;;;;16.94;46.96;100899.31;5062189;28;1190;-53
2023/07/10 10:36:53;;;;;;;;;;;;;;;16.90;47.31;100895.47;5058022;28;1905;-55
2023/07/10 10:39:31;;;;;;;;;;;;;;;16.98;47.04;100886.69;5076856;28;1137;-53
2023/07/10 10:41:58;;;;;;;;;;;;;;;16.91;47.37;100876.00;5076479;28;1142;-55
2023/07/10 10:44:32;;;;;;;;;;;;;;;16.94;47.39;100874.59;5077768;28;1095;-54
2023/07/10 10:47:02;;;;;;;;;;;;;;;16.93;47.36;100862.78;5058000;28;1154;-52
2023/07/10 10:49:30;;;;;;;;;;;;;;;16.92;47.55;100854.84;5058944;28;1098;-53
2023/07/10 10:52:02;;;;;;;;;;;;;;;16.89;47.57;100855.38;5073988;28;1163;-54
2023/07/10 10:54:46;;;;;;;;;;;;;;;16.91;47.61;100842.19;5077261;28;1123;-54
2023/07/10 10:57:12;;;;;;;;;;;;;;;16.99;47.60;100858.13;5069724;28;1932;-52
2023/07/10 10:59:44;;;;;;;;;;;;;;;17.07;47.16;100841.09;5065499;28;1369;-56
2023/07/10 11:02:21;;;;;;;;;;;;;;;16.91;47.77;100847.69;5043402;28;1062;-57
2023/07/10 11:04:50;;;;;;;;;;;;;;;17.03;47.53;100850.97;5056979;28;1412;-58
2023/07/10 11:07:19;;;;;;;;;;;;;;;17.02;47.53;100841.09;5039444;28;1411;-57
2023/07/10 11:09:47;;;;;;;;;;;;;;;17.15;47.38;100836.97;5044068;28;1321;-54
2023/07/10 11:12:14;;;;;;;;;;;;;;;17.00;47.98;100851.53;5076925;28;1130;-57
2023/07/10 11:14:39;;;;;;;;;;;;;;;17.06;47.70;100833.94;5059109;28;892;-58
2023/07/10 11:17:07;;;;;;;;;;;;;;;17.03;47.89;100833.69;5077447;28;1988;-53
2023/07/10 11:19:33;;;;;;;;;;;;;;;17.05;47.77;100837.78;5074695;28;1276;-56
2023/07/10 11:22:19;;;;;;;;;;;;;;;17.05;47.58;100824.03;5059131;28;1484;-58
2023/07/10 11:24:47;;;;;;;;;;;;;;;16.99;48.03;100830.66;5057380;28;1787;-55
2023/07/10 11:27:17;;;;;;;;;;;;;;;17.14;47.62;100823.50;5064666;28;1308;-54
2023/07/10 11:29:43;;;;;;;;;;;;;;;17.11;47.70;100827.66;5056888;28;1270;-55
2023/07/10 11:32:10;;;;;;;;;;;;;;;17.08;47.75;100809.78;5068881;28;1218;-54
2023/07/10 11:34:37;;;;;;;;;;;;;;;17.11;47.71;100813.91;5052363;28;1052;-53
2023/07/10 11:37:03;;;;;;;;;;;;;;;17.15;47.50;100803.97;5075450;28;1918;-55
2023/07/10 11:39:28;;;;;;;;;;;;;;;17.16;47.54;100807.56;5071323;28;1182;-54
2023/07/10 11:41:54;;;;;;;;;;;;;;;17.10;47.49;100810.31;5076202;28;1145;-54
2023/07/10 11:44:28;;;;;;;;;;;;;;;17.02;47.84;100804.56;5073514;28;1147;-57
2023/07/10 11:46:57;;;;;;;;;;;;;;;17.06;47.57;100790.00;5067347;28;1102;-55
2023/07/10 11:49:23;;;;;;;;;;;;;;;17.13;47.37;100810.88;5056493;28;1265;-53
2023/07/10 11:52:12;;;;;;;;;;;;;;;17.08;47.56;100803.44;5064670;28;1300;-54
2023/07/10 11:54:38;;;;;;;;;;;;;;;17.22;47.20;100804.56;5045893;28;1709;-52
2023/07/10 11:57:04;;;;;;;;;;;;;;;17.13;47.52;100797.16;5076406;28;1909;-53
2023/07/10 11:59:29;;;;;;;;;;;;;;;17.22;47.18;100792.72;5063074;28;1348;-54
2023/07/10 12:01:56;;;;;;;;;;;;;;;17.21;47.35;100796.59;5074850;28;954;-54
2023/07/10 12:04:24;;;;;;;;;;;;;;;17.22;47.07;100787.22;5076133;28;1301;-53
2023/07/10 12:06:50;;;;;;;;;;;;;;;17.17;47.42;100798.25;5076287;28;1280;-53
2023/07/10 12:09:16;;;;;;;;;;;;;;;17.14;47.41;100783.13;5074086;28;1340;-52
2023/07/10 12:11:41;;;;;;;;;;;;;;;17.20;47.17;100775.69;5075045;28;1274;-55
2023/07/10 12:14:11;;;;;;;;;;;;;;;17.20;47.09;100772.94;5073391;28;1198;-55
2023/07/10 12:16:57;;;;;;;;;;;;;;;17.25;46.99;100767.41;5075577;28;1905;-52
2023/07/10 12:19:23;;;;;;;;;;;;;;;17.19;47.16;100761.13;5074913;28;1231;-51
2023/07/10 12:21:48;;;;;;;;;;;;;;;17.19;47.24;100765.78;5058024;28;1300;-54
2023/07/10 12:24:15;;;;;;;;;;;;;;;17.24;47.17;100768.53;5075812;28;1297;-56
2023/07/10 12:26:40;;;;;;;;;;;;;;;17.29;46.97;100771.25;5073996;28;1218;-51
2023/07/10 12:29:13;;;;;;;;;;;;;;;17.23;47.00;100769.63;5075554;28;1272;-52
2023/07/10 12:31:39;;;;;;;;;;;;;;;17.24;47.28;100774.84;5076182;28;1231;-53
2023/07/10 12:34:05;;;;;;;;;;;;;;;17.24;47.32;100774.03;5057942;28;1031;-52
2023/07/10 12:36:38;;;;;;;;;;;;;;;17.18;47.45;100784.22;5055988;28;2841;-52
2023/07/10 12:39:04;;;;;;;;;;;;;;;17.23;47.24;100778.69;5068383;28;2098;-53
2023/07/10 12:41:33;;;;;;;;;;;;;;;17.28;47.16;100773.19;5075026;28;2276;-54
2023/07/10 12:44:00;;;;;;;;;;;;;;;17.22;47.17;100773.47;5074860;28;2206;-52
2023/07/10 12:46:27;;;;;;;;;;;;;;;17.27;47.10;100781.72;5057276;28;2172;-54